sensor_id;sensor_type;location;lat;lon;timestamp;temperature;humidity
364;DHT22;173;48.718;9.274;2022-12-10T09:07:53;2.80;99.50
364;DHT22;173;48.718;9.274;2022-12-10T09:10:26;2.80;99.50
364;DHT22;173;48.718;9.274;2022-12-10T09:12:59;2.90;99.50
364;DHT22;173;48.718;9.274;2022-12-10T09:15:31;2.90;99.50
364;DHT22;173;48.718;9.274;2022-12-10T09:18:03;2.80;99.50
364;DHT22;173;48.718;9.274;2022-12-10T09:20:37;2.80;99.50
364;DHT22;173;48.718;9.274;2022-12-10T09:23:07;2.90;99.50
364;DHT22;173;48.718;9.274;2022-12-10T09:25:39;2.80;99.50
364;DHT22;173;48.718;9.274;2022-12-10T09:28:11;2.90;99.50
364;DHT22;173;48.718;9.274;2022-12-10T09:30:43;2.90;99.50
364;DHT22;173;48.718;9.274;2022-12-10T09:33:15;2.90;99.50
364;DHT22;173;48.718;9.274;2022-12-10T09:35:47;2.90;99.50
364;DHT22;173;48.718;9.274;2022-12-10T09:38:19;2.90;99.50
364;DHT22;173;48.718;9.274;2022-12-10T09:41:03;2.90;98.90
364;DHT22;173;48.718;9.274;2022-12-10T09:44:07;2.90;98.30
364;DHT22;173;48.718;9.274;2022-12-10T09:46:59;2.90;98.90
364;DHT22;173;48.718;9.274;2022-12-10T09:52:41;3.00;99.50
364;DHT22;173;48.718;9.274;2022-12-10T09:55:34;2.80;98.70
364;DHT22;173;48.718;9.274;2022-12-10T09:58:30;2.70;98.50
364;DHT22;173;48.718;9.274;2022-12-10T10:01:04;2.70;99.50
364;DHT22;173;48.718;9.274;2022-12-10T10:03:40;2.80;99.50
364;DHT22;173;48.718;9.274;2022-12-10T10:06:12;2.90;99.50
364;DHT22;173;48.718;9.274;2022-12-10T10:08:46;2.90;99.20
364;DHT22;173;48.718;9.274;2022-12-10T10:11:24;3.00;99.20
364;DHT22;173;48.718;9.274;2022-12-10T10:13:59;3.00;98.80
364;DHT22;173;48.718;9.274;2022-12-10T10:16:47;2.90;99.00
364;DHT22;173;48.718;9.274;2022-12-10T10:19:24;2.70;98.60
364;DHT22;173;48.718;9.274;2022-12-10T10:21:52;2.70;98.80
364;DHT22;173;48.718;9.274;2022-12-10T10:24:38;2.80;99.30
364;DHT22;173;48.718;9.274;2022-12-10T10:27:17;2.90;99.40
364;DHT22;173;48.718;9.274;2022-12-10T10:29:53;2.90;98.80
364;DHT22;173;48.718;9.274;2022-12-10T10:35:31;2.90;98.70
364;DHT22;173;48.718;9.274;2022-12-10T10:38:31;3.00;99.10
364;DHT22;173;48.718;9.274;2022-12-10T10:40:54;2.90;97.70
364;DHT22;173;48.718;9.274;2022-12-10T10:43:33;2.90;98.10
364;DHT22;173;48.718;9.274;2022-12-10T10:46:23;3.00;98.80
364;DHT22;173;48.718;9.274;2022-12-10T10:49:11;3.10;98.50
364;DHT22;173;48.718;9.274;2022-12-10T10:51:43;3.30;98.90
364;DHT22;173;48.718;9.274;2022-12-10T10:54:33;3.50;98.50
364;DHT22;173;48.718;9.274;2022-12-10T10:57:17;3.50;98.10
364;DHT22;173;48.718;9.274;2022-12-10T11:00:17;3.20;96.50
364;DHT22;173;48.718;9.274;2022-12-10T11:02:40;3.10;96.80
364;DHT22;173;48.718;9.274;2022-12-10T11:05:21;3.20;97.50
364;DHT22;173;48.718;9.274;2022-12-10T11:08:00;3.30;98.00
364;DHT22;173;48.718;9.274;2022-12-10T11:10:34;3.30;97.20
364;DHT22;173;48.718;9.274;2022-12-10T11:13:18;3.20;95.70
364;DHT22;173;48.718;9.274;2022-12-10T11:15:41;3.00;96.20
364;DHT22;173;48.718;9.274;2022-12-10T11:18:34;3.10;97.40
364;DHT22;173;48.718;9.274;2022-12-10T11:23:48;3.20;96.50
364;DHT22;173;48.718;9.274;2022-12-10T11:29:39;3.10;96.60
364;DHT22;173;48.718;9.274;2022-12-10T11:38:21;3.40;96.10
364;DHT22;173;48.718;9.274;2022-12-10T11:49:16;3.50;96.50
364;DHT22;173;48.718;9.274;2022-12-10T11:52:15;3.50;95.40
364;DHT22;173;48.718;9.274;2022-12-10T12:09:57;3.70;94.80
364;DHT22;173;48.718;9.274;2022-12-10T12:13:05;3.60;95.40
364;DHT22;173;48.718;9.274;2022-12-10T12:18:42;3.70;95.60
364;DHT22;173;48.718;9.274;2022-12-10T12:21:24;3.60;93.30
364;DHT22;173;48.718;9.274;2022-12-10T12:24:16;3.50;94.30
364;DHT22;173;48.718;9.274;2022-12-10T12:26:54;3.60;95.10
364;DHT22;173;48.718;9.274;2022-12-10T12:29:33;3.70;94.00
364;DHT22;173;48.718;9.274;2022-12-10T12:32:25;3.60;93.60
364;DHT22;173;48.718;9.274;2022-12-10T12:38:01;3.40;93.80
364;DHT22;173;48.718;9.274;2022-12-10T12:40:50;3.40;94.80
364;DHT22;173;48.718;9.274;2022-12-10T12:44:03;3.40;94.70
364;DHT22;173;48.718;9.274;2022-12-10T12:46:20;3.30;95.20
364;DHT22;173;48.718;9.274;2022-12-10T12:49:27;3.50;95.60
364;DHT22;173;48.718;9.274;2022-12-10T12:55:22;3.70;94.40
364;DHT22;173;48.718;9.274;2022-12-10T12:58:10;3.70;94.10
364;DHT22;173;48.718;9.274;2022-12-10T13:00:40;3.60;92.90
364;DHT22;173;48.718;9.274;2022-12-10T13:03:44;3.40;93.30
364;DHT22;173;48.718;9.274;2022-12-10T13:06:28;3.40;93.60
364;DHT22;173;48.718;9.274;2022-12-10T13:09:17;3.30;93.60
364;DHT22;173;48.718;9.274;2022-12-10T13:15:02;3.40;94.00
364;DHT22;173;48.718;9.274;2022-12-10T13:17:37;3.20;92.80
364;DHT22;173;48.718;9.274;2022-12-10T13:25:57;3.30;94.10
364;DHT22;173;48.718;9.274;2022-12-10T13:28:41;3.40;94.10
364;DHT22;173;48.718;9.274;2022-12-10T13:31:52;3.50;92.80
364;DHT22;173;48.718;9.274;2022-12-10T13:34:29;3.50;93.00
364;DHT22;173;48.718;9.274;2022-12-10T13:42:33;3.30;92.10
364;DHT22;173;48.718;9.274;2022-12-10T13:45:28;3.30;92.20
364;DHT22;173;48.718;9.274;2022-12-10T13:48:30;3.30;92.80
364;DHT22;173;48.718;9.274;2022-12-10T13:51:18;3.40;92.60
364;DHT22;173;48.718;9.274;2022-12-10T14:00:07;3.30;92.00
364;DHT22;173;48.718;9.274;2022-12-10T14:05:50;3.30;93.20
364;DHT22;173;48.718;9.274;2022-12-10T14:08:35;3.30;92.20
364;DHT22;173;48.718;9.274;2022-12-10T14:11:18;3.20;92.00
364;DHT22;173;48.718;9.274;2022-12-10T14:13:53;3.20;92.30
364;DHT22;173;48.718;9.274;2022-12-10T14:16:30;3.20;92.30
364;DHT22;173;48.718;9.274;2022-12-10T14:19:11;3.20;92.50
364;DHT22;173;48.718;9.274;2022-12-10T14:21:42;3.10;92.50
364;DHT22;173;48.718;9.274;2022-12-10T14:24:41;3.00;93.60
364;DHT22;173;48.718;9.274;2022-12-10T14:27:17;2.70;95.30
364;DHT22;173;48.718;9.274;2022-12-10T14:30:04;2.60;96.70
364;DHT22;173;48.718;9.274;2022-12-10T14:32:46;2.60;97.50
364;DHT22;173;48.718;9.274;2022-12-10T14:35:19;2.70;97.90
364;DHT22;173;48.718;9.274;2022-12-10T14:37:59;2.50;97.90
364;DHT22;173;48.718;9.274;2022-12-10T14:40:38;2.50;98.50
364;DHT22;173;48.718;9.274;2022-12-10T14:43:13;2.40;98.70
364;DHT22;173;48.718;9.274;2022-12-10T14:45:58;2.30;99.20
364;DHT22;173;48.718;9.274;2022-12-10T14:48:35;2.20;99.50
364;DHT22;173;48.718;9.274;2022-12-10T14:51:14;2.20;99.50
364;DHT22;173;48.718;9.274;2022-12-10T14:53:49;2.30;99.50
364;DHT22;173;48.718;9.274;2022-12-10T14:56:22;2.30;99.50
364;DHT22;173;48.718;9.274;2022-12-10T14:58:57;2.20;99.50
364;DHT22;173;48.718;9.274;2022-12-10T15:01:43;2.30;99.50
364;DHT22;173;48.718;9.274;2022-12-10T15:04:19;2.40;99.50
364;DHT22;173;48.718;9.274;2022-12-10T15:06:53;2.50;99.50
364;DHT22;173;48.718;9.274;2022-12-10T15:09:29;2.40;99.30
364;DHT22;173;48.718;9.274;2022-12-10T15:12:02;2.20;99.50
364;DHT22;173;48.718;9.274;2022-12-10T15:14:34;2.20;99.50
364;DHT22;173;48.718;9.274;2022-12-10T15:17:31;2.10;99.50
364;DHT22;173;48.718;9.274;2022-12-10T15:19:57;2.00;99.50
364;DHT22;173;48.718;9.274;2022-12-10T15:22:30;2.00;99.50
364;DHT22;173;48.718;9.274;2022-12-10T15:25:17;2.00;99.50
364;DHT22;173;48.718;9.274;2022-12-10T15:28:00;2.00;99.50
364;DHT22;173;48.718;9.274;2022-12-10T15:30:37;2.00;99.50
364;DHT22;173;48.718;9.274;2022-12-10T15:33:24;2.00;99.50
364;DHT22;173;48.718;9.274;2022-12-10T15:35:58;2.10;99.50
364;DHT22;173;48.718;9.274;2022-12-10T15:38:31;1.90;99.50
364;DHT22;173;48.718;9.274;2022-12-10T15:41:31;1.90;99.50
364;DHT22;173;48.718;9.274;2022-12-10T15:44:31;2.00;99.50
364;DHT22;173;48.718;9.274;2022-12-10T15:47:12;1.80;99.50
364;DHT22;173;48.718;9.274;2022-12-10T15:49:54;1.80;99.50
364;DHT22;173;48.718;9.274;2022-12-10T15:52:26;1.70;99.50
364;DHT22;173;48.718;9.274;2022-12-10T15:55:01;1.70;99.50
364;DHT22;173;48.718;9.274;2022-12-10T15:57:38;1.80;99.50
364;DHT22;173;48.718;9.274;2022-12-10T16:00:20;1.90;99.50
364;DHT22;173;48.718;9.274;2022-12-10T16:02:55;1.80;99.50
364;DHT22;173;48.718;9.274;2022-12-10T16:05:33;1.80;99.50
364;DHT22;173;48.718;9.274;2022-12-10T16:08:29;1.90;99.50
364;DHT22;173;48.718;9.274;2022-12-10T16:11:12;1.90;99.50
364;DHT22;173;48.718;9.274;2022-12-10T16:13:53;2.00;99.50
364;DHT22;173;48.718;9.274;2022-12-10T16:16:21;2.00;99.50
364;DHT22;173;48.718;9.274;2022-12-10T16:18:53;2.10;99.50
364;DHT22;173;48.718;9.274;2022-12-10T16:21:24;2.20;99.50
364;DHT22;173;48.718;9.274;2022-12-10T16:23:58;2.20;99.50
364;DHT22;173;48.718;9.274;2022-12-10T16:26:32;2.20;99.10
364;DHT22;173;48.718;9.274;2022-12-10T16:29:04;2.10;99.20
364;DHT22;173;48.718;9.274;2022-12-10T16:31:38;2.10;99.40
364;DHT22;173;48.718;9.274;2022-12-10T16:34:11;2.10;99.50
364;DHT22;173;48.718;9.274;2022-12-10T16:36:43;2.10;99.40
364;DHT22;173;48.718;9.274;2022-12-10T16:39:15;2.10;99.40
364;DHT22;173;48.718;9.274;2022-12-10T16:41:50;2.10;99.00
364;DHT22;173;48.718;9.274;2022-12-10T16:44:22;2.00;98.70
364;DHT22;173;48.718;9.274;2022-12-10T16:46:54;2.00;98.80
364;DHT22;173;48.718;9.274;2022-12-10T16:49:27;2.00;98.40
364;DHT22;173;48.718;9.274;2022-12-10T16:51:59;1.90;98.30
364;DHT22;173;48.718;9.274;2022-12-10T16:54:32;1.90;98.60
364;DHT22;173;48.718;9.274;2022-12-10T16:57:12;1.80;98.20
364;DHT22;173;48.718;9.274;2022-12-10T16:59:44;1.90;98.40
364;DHT22;173;48.718;9.274;2022-12-10T17:02:17;1.90;98.30
364;DHT22;173;48.718;9.274;2022-12-10T17:04:49;1.90;98.50
364;DHT22;173;48.718;9.274;2022-12-10T17:07:27;1.90;98.40
364;DHT22;173;48.718;9.274;2022-12-10T17:10:01;1.80;98.00
364;DHT22;173;48.718;9.274;2022-12-10T17:12:32;1.80;98.20
364;DHT22;173;48.718;9.274;2022-12-10T17:15:08;1.70;98.50
364;DHT22;173;48.718;9.274;2022-12-10T17:17:38;1.70;98.70
364;DHT22;173;48.718;9.274;2022-12-10T17:20:20;1.80;98.60
364;DHT22;173;48.718;9.274;2022-12-10T17:22:47;1.70;98.40
364;DHT22;173;48.718;9.274;2022-12-10T17:25:19;1.70;98.50
364;DHT22;173;48.718;9.274;2022-12-10T17:27:51;1.70;98.90
364;DHT22;173;48.718;9.274;2022-12-10T17:30:23;1.70;99.20
364;DHT22;173;48.718;9.274;2022-12-10T17:32:56;1.70;98.90
364;DHT22;173;48.718;9.274;2022-12-10T17:35:28;1.60;98.80
364;DHT22;173;48.718;9.274;2022-12-10T17:38:00;1.60;98.80
364;DHT22;173;48.718;9.274;2022-12-10T17:40:32;1.60;98.90
364;DHT22;173;48.718;9.274;2022-12-10T17:43:02;1.60;98.90
364;DHT22;173;48.718;9.274;2022-12-10T17:45:34;1.70;98.50
364;DHT22;173;48.718;9.274;2022-12-10T17:48:09;1.60;98.50
364;DHT22;173;48.718;9.274;2022-12-10T17:50:44;1.60;98.50
364;DHT22;173;48.718;9.274;2022-12-10T17:53:16;1.70;98.40
364;DHT22;173;48.718;9.274;2022-12-10T17:55:49;1.70;98.70
364;DHT22;173;48.718;9.274;2022-12-10T17:58:26;1.70;98.50
364;DHT22;173;48.718;9.274;2022-12-10T18:00:58;1.70;98.90
364;DHT22;173;48.718;9.274;2022-12-10T18:03:30;1.60;98.90
364;DHT22;173;48.718;9.274;2022-12-10T18:08:43;1.60;99.30
364;DHT22;173;48.718;9.274;2022-12-10T18:11:18;1.40;99.50
364;DHT22;173;48.718;9.274;2022-12-10T18:13:51;1.30;99.50
364;DHT22;173;48.718;9.274;2022-12-10T18:16:23;1.30;99.50
364;DHT22;173;48.718;9.274;2022-12-10T18:19:00;1.30;99.50
364;DHT22;173;48.718;9.274;2022-12-10T18:21:33;1.30;99.50
364;DHT22;173;48.718;9.274;2022-12-10T18:24:05;1.20;99.50
364;DHT22;173;48.718;9.274;2022-12-10T18:26:37;1.20;99.50
364;DHT22;173;48.718;9.274;2022-12-10T18:29:12;1.20;99.50
364;DHT22;173;48.718;9.274;2022-12-10T18:31:43;1.20;99.50
364;DHT22;173;48.718;9.274;2022-12-10T18:34:15;1.30;99.50
364;DHT22;173;48.718;9.274;2022-12-10T18:36:48;1.30;99.50
364;DHT22;173;48.718;9.274;2022-12-10T18:39:25;1.30;99.50
364;DHT22;173;48.718;9.274;2022-12-10T18:42:00;1.20;99.50
364;DHT22;173;48.718;9.274;2022-12-10T18:44:31;1.20;99.50
364;DHT22;173;48.718;9.274;2022-12-10T18:47:04;1.20;99.50
364;DHT22;173;48.718;9.274;2022-12-10T18:49:39;1.20;99.50
364;DHT22;173;48.718;9.274;2022-12-10T18:52:11;1.20;99.50
364;DHT22;173;48.718;9.274;2022-12-10T18:54:44;1.20;99.50
364;DHT22;173;48.718;9.274;2022-12-10T18:57:16;1.30;99.50
364;DHT22;173;48.718;9.274;2022-12-10T18:59:48;1.30;99.50
364;DHT22;173;48.718;9.274;2022-12-10T19:02:20;1.30;99.50
364;DHT22;173;48.718;9.274;2022-12-10T19:04:52;1.30;99.50
364;DHT22;173;48.718;9.274;2022-12-10T19:07:24;1.40;99.50
364;DHT22;173;48.718;9.274;2022-12-10T19:09:56;1.50;99.50
364;DHT22;173;48.718;9.274;2022-12-10T19:12:28;1.40;99.50
364;DHT22;173;48.718;9.274;2022-12-10T19:15:00;1.30;99.50
364;DHT22;173;48.718;9.274;2022-12-10T19:17:34;1.40;99.50
364;DHT22;173;48.718;9.274;2022-12-10T19:20:14;1.40;99.50
364;DHT22;173;48.718;9.274;2022-12-10T19:22:45;1.40;99.50
364;DHT22;173;48.718;9.274;2022-12-10T19:25:19;1.40;99.50
364;DHT22;173;48.718;9.274;2022-12-10T19:27:53;1.40;99.50
364;DHT22;173;48.718;9.274;2022-12-10T19:30:26;1.50;99.50
364;DHT22;173;48.718;9.274;2022-12-10T19:32:58;1.50;99.50
364;DHT22;173;48.718;9.274;2022-12-10T19:35:30;1.50;99.50
364;DHT22;173;48.718;9.274;2022-12-10T19:38:02;1.50;99.50
364;DHT22;173;48.718;9.274;2022-12-10T19:40:36;1.40;99.50
364;DHT22;173;48.718;9.274;2022-12-10T19:43:08;1.40;99.50
364;DHT22;173;48.718;9.274;2022-12-10T19:45:40;1.40;99.50
364;DHT22;173;48.718;9.274;2022-12-10T19:48:12;1.50;99.50
364;DHT22;173;48.718;9.274;2022-12-10T19:50:44;1.50;99.50
364;DHT22;173;48.718;9.274;2022-12-10T19:53:16;1.50;99.50
364;DHT22;173;48.718;9.274;2022-12-10T19:55:48;1.40;99.50
364;DHT22;173;48.718;9.274;2022-12-10T19:58:20;1.30;99.50
364;DHT22;173;48.718;9.274;2022-12-10T20:00:52;1.20;99.50
364;DHT22;173;48.718;9.274;2022-12-10T20:03:25;1.30;99.50
364;DHT22;173;48.718;9.274;2022-12-10T20:05:57;1.30;99.50
364;DHT22;173;48.718;9.274;2022-12-10T20:08:29;1.30;99.50
364;DHT22;173;48.718;9.274;2022-12-10T20:11:02;1.20;99.50
364;DHT22;173;48.718;9.274;2022-12-10T20:13:35;1.00;99.50
364;DHT22;173;48.718;9.274;2022-12-10T20:16:25;1.00;99.50
364;DHT22;173;48.718;9.274;2022-12-10T20:18:56;1.00;99.50
364;DHT22;173;48.718;9.274;2022-12-10T20:21:28;1.00;99.50
364;DHT22;173;48.718;9.274;2022-12-10T20:24:00;1.10;99.50
364;DHT22;173;48.718;9.274;2022-12-10T20:26:36;1.00;99.50
364;DHT22;173;48.718;9.274;2022-12-10T20:29:27;1.10;99.50
364;DHT22;173;48.718;9.274;2022-12-10T20:32:01;1.10;99.50
364;DHT22;173;48.718;9.274;2022-12-10T20:34:33;1.20;99.50
364;DHT22;173;48.718;9.274;2022-12-10T20:37:03;1.20;99.50
364;DHT22;173;48.718;9.274;2022-12-10T20:39:35;1.20;99.50
364;DHT22;173;48.718;9.274;2022-12-10T20:42:07;1.30;99.50
364;DHT22;173;48.718;9.274;2022-12-10T20:44:39;1.30;99.50
364;DHT22;173;48.718;9.274;2022-12-10T20:47:10;1.30;99.50
364;DHT22;173;48.718;9.274;2022-12-10T20:51:14;1.20;99.20
364;DHT22;173;48.718;9.274;2022-12-10T20:53:48;1.10;98.90
364;DHT22;173;48.718;9.274;2022-12-10T20:56:22;0.90;99.30
364;DHT22;173;48.718;9.274;2022-12-10T20:58:54;0.90;99.50
364;DHT22;173;48.718;9.274;2022-12-10T21:01:28;0.80;99.50
364;DHT22;173;48.718;9.274;2022-12-10T21:04:01;0.80;99.50
364;DHT22;173;48.718;9.274;2022-12-10T21:06:33;0.80;99.50
364;DHT22;173;48.718;9.274;2022-12-10T21:09:05;0.80;99.50
364;DHT22;173;48.718;9.274;2022-12-10T21:11:38;0.80;99.50
364;DHT22;173;48.718;9.274;2022-12-10T21:14:12;0.70;99.50
364;DHT22;173;48.718;9.274;2022-12-10T21:16:44;0.70;99.50
364;DHT22;173;48.718;9.274;2022-12-10T21:19:16;0.60;99.50
364;DHT22;173;48.718;9.274;2022-12-10T21:21:50;0.60;99.50
364;DHT22;173;48.718;9.274;2022-12-10T21:24:24;0.70;99.50
364;DHT22;173;48.718;9.274;2022-12-10T21:26:56;0.60;99.50
364;DHT22;173;48.718;9.274;2022-12-10T21:29:27;0.60;99.50
364;DHT22;173;48.718;9.274;2022-12-10T21:31:59;0.60;99.50
364;DHT22;173;48.718;9.274;2022-12-10T21:34:31;0.50;99.50
364;DHT22;173;48.718;9.274;2022-12-10T21:37:03;0.40;99.50
364;DHT22;173;48.718;9.274;2022-12-10T21:39:35;0.40;99.50
364;DHT22;173;48.718;9.274;2022-12-10T21:42:08;0.40;99.50
364;DHT22;173;48.718;9.274;2022-12-10T21:44:59;0.40;99.50
364;DHT22;173;48.718;9.274;2022-12-10T21:47:31;0.30;99.50
364;DHT22;173;48.718;9.274;2022-12-10T21:50:03;0.30;99.50
364;DHT22;173;48.718;9.274;2022-12-10T21:52:36;0.30;99.50
364;DHT22;173;48.718;9.274;2022-12-10T21:55:08;0.30;99.50
364;DHT22;173;48.718;9.274;2022-12-10T21:57:40;0.40;99.50
364;DHT22;173;48.718;9.274;2022-12-10T22:00:15;0.40;99.50
364;DHT22;173;48.718;9.274;2022-12-10T22:02:47;0.40;99.50
364;DHT22;173;48.718;9.274;2022-12-10T22:05:19;0.50;99.50
364;DHT22;173;48.718;9.274;2022-12-10T22:07:53;0.40;99.50
364;DHT22;173;48.718;9.274;2022-12-10T22:10:27;0.40;99.50
364;DHT22;173;48.718;9.274;2022-12-10T22:13:01;0.50;99.50
364;DHT22;173;48.718;9.274;2022-12-10T22:15:36;0.50;99.50
364;DHT22;173;48.718;9.274;2022-12-10T22:18:15;0.50;99.50
364;DHT22;173;48.718;9.274;2022-12-10T22:20:57;0.50;99.50
364;DHT22;173;48.718;9.274;2022-12-10T22:23:28;0.50;99.50
364;DHT22;173;48.718;9.274;2022-12-10T22:26:05;0.50;99.50
364;DHT22;173;48.718;9.274;2022-12-10T22:28:40;0.50;99.50
364;DHT22;173;48.718;9.274;2022-12-10T22:31:11;0.50;99.50
364;DHT22;173;48.718;9.274;2022-12-10T22:33:49;0.50;99.50
364;DHT22;173;48.718;9.274;2022-12-10T22:36:31;0.50;99.50
364;DHT22;173;48.718;9.274;2022-12-10T22:39:11;0.60;99.50
364;DHT22;173;48.718;9.274;2022-12-10T22:41:48;0.70;99.50
364;DHT22;173;48.718;9.274;2022-12-10T22:44:26;0.70;99.50
364;DHT22;173;48.718;9.274;2022-12-10T22:47:11;0.70;99.50
364;DHT22;173;48.718;9.274;2022-12-10T22:49:45;0.70;99.50
364;DHT22;173;48.718;9.274;2022-12-10T22:52:23;0.70;99.40
364;DHT22;173;48.718;9.274;2022-12-10T22:55:04;0.60;98.90
364;DHT22;173;48.718;9.274;2022-12-10T22:57:43;0.50;99.30
364;DHT22;173;48.718;9.274;2022-12-10T23:00:28;0.40;98.50
364;DHT22;173;48.718;9.274;2022-12-10T23:03:02;0.40;99.10
364;DHT22;173;48.718;9.274;2022-12-10T23:05:38;0.40;99.40
364;DHT22;173;48.718;9.274;2022-12-10T23:08:17;0.50;99.30
364;DHT22;173;48.718;9.274;2022-12-10T23:10:57;0.50;98.90
364;DHT22;173;48.718;9.274;2022-12-10T23:13:35;0.40;98.50
364;DHT22;173;48.718;9.274;2022-12-10T23:16:16;0.20;98.20
364;DHT22;173;48.718;9.274;2022-12-10T23:18:54;0.10;98.70
364;DHT22;173;48.718;9.274;2022-12-10T23:21:37;0.10;98.90
364;DHT22;173;48.718;9.274;2022-12-10T23:24:11;0.10;98.90
364;DHT22;173;48.718;9.274;2022-12-10T23:26:43;0.10;99.00
364;DHT22;173;48.718;9.274;2022-12-10T23:29:17;0.00;99.10
364;DHT22;173;48.718;9.274;2022-12-10T23:31:49;0.00;99.30
364;DHT22;173;48.718;9.274;2022-12-10T23:34:21;0.00;99.10
364;DHT22;173;48.718;9.274;2022-12-10T23:36:53;-0.10;99.30
364;DHT22;173;48.718;9.274;2022-12-10T23:39:25;-0.10;99.40
364;DHT22;173;48.718;9.274;2022-12-10T23:41:56;-0.20;99.50
364;DHT22;173;48.718;9.274;2022-12-10T23:44:28;-0.20;99.50
364;DHT22;173;48.718;9.274;2022-12-10T23:47:00;-0.20;99.50
364;DHT22;173;48.718;9.274;2022-12-10T23:49:32;-0.20;99.50
364;DHT22;173;48.718;9.274;2022-12-10T23:52:02;-0.20;99.50
364;DHT22;173;48.718;9.274;2022-12-10T23:54:34;-0.10;99.50
364;DHT22;173;48.718;9.274;2022-12-10T23:57:06;-0.10;99.50
364;DHT22;173;48.718;9.274;2022-12-10T23:59:40;-0.20;99.50
